Flight Track Log - Related Links

Times and Time Zones

All times are in EDT time to prevent confusion due to time zone crossing. See the N6GD flight status page for this flight to view local times or setup timezone preferences in your user account.

Time Position Orientation Groundspeed Altitude Reporting Facility
EDT Latitude Longitude Course Direction KTS MPH feet Rate Location/Type
Wed 12:51:58 PM 25.1869 -77.3842 310° West 265 305 11,000  Level Miami Center
Wed 12:53:00 PM 25.2364 -77.4900 297° West 303 349 13,300 2,613 Climbing Miami Center
Wed 12:54:02 PM 25.2581 -77.5806 285° West 310 357 16,400 2,613 Climbing Miami Center
Wed 12:55:04 PM 25.2950 -77.6606 297° West 297 342 18,700 1,839 Climbing Miami Center
Wed 12:56:06 PM 25.3389 -77.7439 300° West 309 356 20,200 1,258 Climbing Miami Center
Wed 12:57:00 PM 25.3105 -77.8418 310° West  Level FlightAware Approximate
Wed 12:57:08 PM 25.3889 -77.8425 299° West 346 398 21,300  Level Miami Center
Wed 12:58:10 PM 25.4503 -77.9667 299° West 386 444 22,400 1,152 Climbing Miami Center
Wed 12:59:13 PM 25.5036 -78.0775 298° West 405 466 23,700 1,344 Climbing Miami Center
Wed 01:00:15 PM 25.5617 -78.1867 301° West 409 471 25,200 1,403 Climbing Miami Center
Wed 01:01:17 PM 25.6156 -78.2978 298° West 410 472 26,600 1,403 Climbing Miami Center
Wed 01:02:19 PM 25.6758 -78.4103 301° West 420 483 28,100 1,355 Climbing Miami Center
Wed 01:03:21 PM 25.7331 -78.5228 299° West 422 486 29,400 1,306 Climbing Miami Center
Wed 01:04:23 PM 25.8011 -78.6631 298° West 428 493 30,800 1,161 Climbing Miami Center
Wed 01:05:25 PM 25.8617 -78.7833 299° West 442 509 31,800 581 Climbing Miami Center
Wed 01:06:27 PM 25.9233 -78.9089 299° West 460 529 32,000 97 Climbing Miami Center
Wed 01:07:29 PM 26.0014 -79.0306 306° West 482 555 32,000  Level Miami Center
Wed 01:08:31 PM 26.0811 -79.1439 308° West 477 549 32,000  Level Miami Center
Wed 01:09:33 PM 26.1631 -79.2597 308° West 477 549 32,000  Level Miami Center
Wed 01:10:35 PM 26.2600 -79.4003 308° West 477 549 32,000  Level Miami Center
Wed 01:11:37 PM 26.3406 -79.5178 307° West 477 549 32,000  Level Miami Center
Wed 01:12:38 PM 26.4203 -79.6344 307° West 477 549 32,000  Level Miami Center
Wed 01:13:40 PM 26.5000 -79.7531 307° West 479 551 32,000  Level Miami Center
Wed 01:14:42 PM 26.5772 -79.8717 306° West 477 549 32,000  Level Miami Center
Wed 01:15:44 PM 26.6669 -80.0161 305° West 473 544 32,000  Level Miami Center
Wed 01:16:46 PM 26.7386 -80.1383 303° West 473 544 32,000  Level Miami Center
Wed 01:17:48 PM 26.8075 -80.2564 303° West 473 544 32,000  Level Miami Center
Wed 01:18:50 PM 26.8794 -80.3794 303° West 472 543 32,000  Level Miami Center
Wed 01:19:52 PM 26.9494 -80.5039 302° West 472 543 32,000  Level Miami Center
Wed 01:20:54 PM 27.0075 -80.6675 292° West 469 540 32,000  Level Miami Center
Wed 01:21:56 PM 27.0494 -80.8061 289° West 471 542 32,000  Level Miami Center
Wed 01:22:58 PM 27.0931 -80.9453 289° West 471 542 32,000 -97 Level Miami Center
Wed 01:24:00 PM 27.1342 -81.0817 289° West 471 542 31,800 -871 Descending Miami Center
Wed 01:25:02 PM 27.1769 -81.2186 289° West 465 535 30,200 -1,887 Descending Miami Center
Wed 01:26:04 PM 27.2242 -81.3733 289° West 458 527 27,900 -2,419 Descending Miami Center
Wed 01:27:06 PM 27.2661 -81.5139 289° West 456 525 25,200 -2,878 Descending Miami Center
Wed 01:28:07 PM 27.3083 -81.6525 289° West 450 518 22,000 -2,927 Descending Miami Center
Wed 01:29:09 PM 27.3447 -81.7725 289° West 424 488 19,200 -2,710 Descending Miami Center
Wed 01:30:11 PM 27.3786 -81.8878 288° West 393 452 16,400 -2,613 Descending Miami Center
Wed 01:31:13 PM 27.4111 -81.9972 289° West 366 421 13,800 -2,323 Descending Miami Center
Wed 01:32:15 PM 27.4414 -82.0972 289° West 337 388 11,600 -1,355 Descending Miami Center
Wed 01:33:17 PM 27.4883 -82.1794 303° West 311 358 11,000 -387 Descending Miami Center
Wed 01:34:19 PM 27.5439 -82.2561 309° West 324 373 10,800 -726 Descending Miami Center
Wed 01:35:21 PM 27.5406 -82.3483 268° West 294 338 9,500 -1,297 Descending Miami Center
Wed 01:36:10 PM 27.5333 -82.4333 265° West 255 293 8,400 -1,266 Descending Tampa TRACON
Wed 01:37:10 PM 27.5333 -82.5000 270° West 256 295 7,200 -1,200 Descending Tampa TRACON
Wed 01:38:10 PM 27.5667 -82.5667 299° West 252 290 6,000 -1,190 Descending Tampa TRACON
Wed 01:39:16 PM 27.6167 -82.6167 318° Northwest 249 287 4,700 -864 Descending Tampa TRACON
Wed 01:40:22 PM 27.6500 -82.7000 294° West 244 281 4,100 -368 Descending Tampa TRACON
Wed 01:41:10 PM 27.7000 -82.7333 329° Northwest 262 302 4,000 -53 Descending Tampa TRACON
Wed 01:42:16 PM 27.7833 -82.7667 341° North 266 306 4,000  Level Tampa TRACON
Wed 01:43:22 PM 27.8500 -82.8000 336° Northwest 257 296 4,000  Level Tampa TRACON
Wed 01:44:05 PM 27.9000 -82.8000 360° North 253 291 4,000 -556 Level Tampa TRACON
Wed 01:45:10 PM 27.9833 -82.8000 360° North 247 284 3,000 -950 Descending Tampa TRACON
Wed 01:46:05 PM 28.0333 -82.8000 360° North 224 258 2,100 -561 Descending Tampa TRACON
Wed 01:47:29 PM 28.0500 -82.7167 77° East 198 228 1,700 -250 Descending Tampa TRACON
Wed 01:48:05 PM 28.0333 -82.7167 180° South 163 188 1,600 -278 Descending Tampa TRACON
Wed 01:49:17 PM 27.9833 -82.7000 164° South 130 150 1,200 -500 Descending Tampa TRACON
Wed 01:50:17 PM 27.9500 -82.7000 180° South 133 153 500 -700 Descending Tampa TRACON
Wed 01:52:00 PM 27.9100 -82.6875 214° Southwest  Level Estimated

Login

Don't have an account? Register now (free) for customized features, flight alerts, and more!